createdAt,value
2019-04-10T00:00:37.280Z,15.00
2019-04-10T00:03:08.256Z,14.90
2019-04-10T00:05:38.289Z,17.60
2019-04-10T00:08:09.972Z,29.90
2019-04-10T00:10:40.480Z,20.75
2019-04-10T00:13:10.307Z,17.10
2019-04-10T00:15:40.336Z,19.05
2019-04-10T00:18:10.209Z,20.70
2019-04-10T00:20:42.679Z,22.00
2019-04-10T00:23:13.171Z,18.87
2019-04-10T00:25:43.438Z,19.37
2019-04-10T00:28:13.422Z,17.10
2019-04-10T00:30:43.324Z,15.53
2019-04-10T00:33:13.367Z,15.10
2019-04-10T00:35:43.755Z,16.23
2019-04-10T00:38:13.771Z,15.85
2019-04-10T00:40:43.793Z,15.75
2019-04-10T00:43:13.599Z,17.77
2019-04-10T00:45:44.002Z,18.52
2019-04-10T00:48:13.892Z,14.80
2019-04-10T00:50:44.601Z,15.95
2019-04-10T00:53:14.561Z,15.65
2019-04-10T00:55:44.395Z,17.20
2019-04-10T00:58:14.288Z,18.82
2019-04-10T01:00:44.122Z,16.45
2019-04-10T01:03:15.965Z,19.02
2019-04-10T01:05:45.857Z,16.77
2019-04-10T01:08:16.111Z,18.35
2019-04-10T01:10:46.300Z,17.25
2019-04-10T01:13:16.714Z,17.30
2019-04-10T01:15:46.903Z,21.48
2019-04-10T01:18:17.188Z,20.90
2019-04-10T01:20:48.019Z,20.77
2019-04-10T01:23:18.100Z,22.22
2019-04-10T01:25:48.408Z,19.40
2019-04-10T01:28:18.285Z,21.37
2019-04-10T01:30:48.645Z,21.35
2019-04-10T01:33:18.706Z,20.55
2019-04-10T01:35:48.802Z,19.32
2019-04-10T01:38:19.620Z,22.27
2019-04-10T01:40:51.167Z,23.98
2019-04-10T01:43:20.990Z,27.25
2019-04-10T01:45:51.560Z,34.73
2019-04-10T01:48:21.534Z,25.68
2019-04-10T01:50:51.439Z,26.15
2019-04-10T01:53:21.780Z,26.25
2019-04-10T01:55:51.855Z,28.50
2019-04-10T01:58:23.319Z,30.35
2019-04-10T02:00:54.813Z,28.17
2019-04-10T02:03:25.648Z,32.53
2019-04-10T02:05:56.684Z,29.10
2019-04-10T02:08:26.800Z,27.48
2019-04-10T02:10:56.741Z,27.90
2019-04-10T02:13:27.535Z,27.90
2019-04-10T02:15:58.529Z,30.02
2019-04-10T02:18:29.459Z,32.83
2019-04-10T02:20:59.581Z,31.68
2019-04-10T02:23:30.251Z,33.50
2019-04-10T02:26:01.262Z,33.38
2019-04-10T02:28:31.211Z,32.93
2019-04-10T02:31:02.725Z,33.70
2019-04-10T02:33:33.626Z,34.95
2019-04-10T02:36:04.255Z,34.23
2019-04-10T02:38:49.243Z,29.02
2019-04-10T02:41:08.171Z,30.97
2019-04-10T02:43:39.694Z,29.40
2019-04-10T02:46:11.276Z,31.07
2019-04-10T02:48:41.584Z,29.92
2019-04-10T02:51:11.508Z,30.97
2019-04-10T02:53:41.384Z,32.50
2019-04-10T02:56:11.822Z,32.65
2019-04-10T02:58:47.036Z,33.90
2019-04-10T03:01:17.464Z,32.03
2019-04-10T03:03:47.554Z,36.40
2019-04-10T03:06:18.736Z,34.75
2019-04-10T03:09:05.931Z,32.53
2019-04-10T03:11:22.191Z,36.03
2019-04-10T03:13:53.318Z,36.30
2019-04-10T03:16:23.809Z,31.68
2019-04-10T03:18:53.671Z,35.95
2019-04-10T03:21:23.570Z,32.60
2019-04-10T03:23:53.798Z,40.25
2019-04-10T03:26:25.633Z,34.63
2019-04-10T03:28:55.685Z,33.63
2019-04-10T03:31:27.787Z,36.50
2019-04-10T03:34:03.325Z,34.95
2019-04-10T03:36:38.004Z,34.38
2019-04-10T03:39:10.465Z,36.13
2019-04-10T03:41:42.145Z,36.15
2019-04-10T03:44:12.138Z,36.63
2019-04-10T03:46:42.698Z,39.10
2019-04-10T03:49:13.640Z,37.70
2019-04-10T03:51:44.945Z,41.77
2019-04-10T03:54:15.243Z,39.63
2019-04-10T03:56:45.696Z,37.83
2019-04-10T03:59:15.920Z,40.35
2019-04-10T04:01:45.789Z,36.70
2019-04-10T04:04:15.677Z,37.67
2019-04-10T04:06:46.429Z,49.38
2019-04-10T04:09:17.516Z,37.40
2019-04-10T04:11:48.122Z,36.90
2019-04-10T04:14:18.064Z,36.53
2019-04-10T04:16:49.070Z,36.80
2019-04-10T04:19:19.033Z,35.33
2019-04-10T04:21:50.280Z,33.45
2019-04-10T04:24:23.538Z,37.65
2019-04-10T04:26:53.473Z,33.33
2019-04-10T04:29:23.304Z,36.42
2019-04-10T04:31:53.181Z,38.17
2019-04-10T04:34:23.070Z,34.38
2019-04-10T04:36:53.580Z,38.17
2019-04-10T04:39:26.973Z,30.72
2019-04-10T04:41:55.073Z,27.15
2019-04-10T04:44:24.907Z,24.52
2019-04-10T04:46:54.851Z,24.50
2019-04-10T04:49:24.758Z,24.67
2019-04-10T04:51:54.720Z,26.68
2019-04-10T04:54:25.511Z,18.65
2019-04-10T04:56:56.153Z,17.30
2019-04-10T04:59:28.119Z,23.55
2019-04-10T05:01:58.181Z,19.12
2019-04-10T05:04:28.024Z,17.42
2019-04-10T05:06:59.849Z,18.87
2019-04-10T05:09:35.604Z,17.60
2019-04-10T05:12:01.439Z,20.57
2019-04-10T05:14:31.528Z,25.08
2019-04-10T05:17:01.808Z,22.70
2019-04-10T05:19:32.002Z,19.90
2019-04-10T05:22:01.959Z,21.87
2019-04-10T05:24:32.045Z,23.38
2019-04-10T05:27:02.340Z,25.32
2019-04-10T05:29:32.125Z,25.08
2019-04-10T05:32:02.071Z,26.48
2019-04-10T05:34:31.895Z,24.75
2019-04-10T05:37:01.746Z,26.75
2019-04-10T05:39:40.559Z,30.23
2019-04-10T05:42:04.208Z,29.25
2019-04-10T05:44:34.297Z,34.10
2019-04-10T05:47:05.401Z,27.95
2019-04-10T05:49:37.276Z,28.23
2019-04-10T05:52:08.179Z,26.17
2019-04-10T05:54:39.464Z,25.40
2019-04-10T05:57:10.379Z,27.32
2019-04-10T05:59:40.464Z,27.75
2019-04-10T06:02:10.449Z,27.70
2019-04-10T06:04:41.210Z,26.97
2019-04-10T06:07:12.699Z,28.20
2019-04-10T06:09:54.003Z,26.90
2019-04-10T06:12:14.297Z,28.23
2019-04-10T06:14:44.269Z,28.70
2019-04-10T06:17:14.202Z,29.70
2019-04-10T06:19:44.789Z,32.50
2019-04-10T06:22:14.818Z,33.02
2019-04-10T06:24:44.787Z,36.75
2019-04-10T06:27:14.772Z,35.15
2019-04-10T06:29:46.257Z,37.60
2019-04-10T06:32:17.055Z,36.38
2019-04-10T06:34:48.046Z,32.90
2019-04-10T06:37:18.249Z,33.40
2019-04-10T06:39:49.022Z,40.38
2019-04-10T06:42:20.316Z,36.98
2019-04-10T06:44:50.471Z,36.63
2019-04-10T06:47:20.421Z,35.50
2019-04-10T06:49:50.531Z,35.73
2019-04-10T06:52:20.704Z,35.28
2019-04-10T06:54:51.107Z,38.20
2019-04-10T06:57:21.086Z,42.88
2019-04-10T06:59:51.050Z,35.92
2019-04-10T07:02:27.344Z,39.27
2019-04-10T07:04:55.971Z,32.05
2019-04-10T07:07:27.190Z,32.78
2019-04-10T07:09:57.128Z,32.95
2019-04-10T07:12:32.146Z,30.70
2019-04-10T07:15:00.687Z,32.15
2019-04-10T07:17:35.681Z,31.25
2019-04-10T07:20:03.753Z,32.73
2019-04-10T07:22:33.792Z,34.75
2019-04-10T07:25:04.662Z,31.80
2019-04-10T07:27:36.956Z,28.17
2019-04-10T07:30:07.969Z,26.77
2019-04-10T07:32:42.127Z,29.35
2019-04-10T07:35:09.424Z,30.15
2019-04-10T07:37:40.359Z,30.32
2019-04-10T07:40:12.250Z,26.57
2019-04-10T07:42:43.346Z,25.70
2019-04-10T07:45:14.076Z,22.67
2019-04-10T07:47:44.134Z,24.02
2019-04-10T07:50:14.372Z,26.00
2019-04-10T07:52:45.896Z,26.48
2019-04-10T07:55:16.897Z,25.68
2019-04-10T07:57:48.567Z,33.28
2019-04-10T08:00:18.525Z,22.93
2019-04-10T08:02:49.147Z,21.40
2019-04-10T08:05:19.309Z,19.12
2019-04-10T08:07:49.306Z,21.93
2019-04-10T08:10:20.012Z,21.52
2019-04-10T08:12:53.338Z,21.60
2019-04-10T08:15:21.646Z,21.17
2019-04-10T08:17:51.869Z,21.40
2019-04-10T08:20:22.020Z,24.07
2019-04-10T08:22:51.941Z,18.82
2019-04-10T08:25:22.714Z,17.40
2019-04-10T08:27:52.772Z,16.30
2019-04-10T08:30:23.669Z,11.08
2019-04-10T08:33:00.614Z,13.70
2019-04-10T08:35:25.297Z,11.83
2019-04-10T08:37:55.195Z,10.63
2019-04-10T08:40:25.084Z,10.68
2019-04-10T08:42:55.733Z,13.55
2019-04-10T08:45:35.766Z,11.38
2019-04-10T08:47:57.382Z,12.55
2019-04-10T08:50:28.063Z,13.55
2019-04-10T08:52:58.045Z,11.95
2019-04-10T08:55:28.938Z,11.53
2019-04-10T08:57:58.892Z,11.05
2019-04-10T09:00:28.925Z,13.88
2019-04-10T09:03:00.227Z,13.93
2019-04-10T09:05:30.245Z,13.65
2019-04-10T09:08:00.339Z,18.57
2019-04-10T09:10:30.363Z,22.10
2019-04-10T09:13:00.294Z,21.95
2019-04-10T09:15:30.191Z,18.40
2019-04-10T09:18:01.948Z,24.07
2019-04-10T09:20:32.936Z,22.30
2019-04-10T09:23:21.502Z,23.80
2019-04-10T09:25:35.349Z,28.40
2019-04-10T09:28:06.387Z,22.80
2019-04-10T09:30:37.246Z,20.25
2019-04-10T09:33:18.759Z,19.57
2019-04-10T09:35:38.744Z,19.25
2019-04-10T09:38:08.583Z,18.05
2019-04-10T09:40:38.482Z,20.75
2019-04-10T09:43:09.331Z,23.83
2019-04-10T09:45:39.363Z,22.42
2019-04-10T09:48:09.181Z,20.35
2019-04-10T09:50:39.620Z,20.17
2019-04-10T09:53:10.718Z,21.75
2019-04-10T09:55:40.727Z,21.87
2019-04-10T09:58:10.581Z,20.32
2019-04-10T10:00:40.477Z,35.03
2019-04-10T10:03:11.838Z,23.05
2019-04-10T10:05:42.455Z,23.80
2019-04-10T10:08:12.416Z,26.33
2019-04-10T10:10:42.346Z,28.30
2019-04-10T10:13:13.083Z,28.32
2019-04-10T10:15:43.235Z,28.40
2019-04-10T10:18:14.350Z,28.62
2019-04-10T10:20:44.253Z,30.85
2019-04-10T10:23:14.095Z,29.63
2019-04-10T10:25:43.920Z,27.85
2019-04-10T10:28:15.234Z,28.52
2019-04-10T10:30:45.245Z,27.50
2019-04-10T10:33:17.330Z,31.15
2019-04-10T10:35:47.524Z,29.60
2019-04-10T10:38:17.347Z,29.92
2019-04-10T10:40:47.314Z,29.25
2019-04-10T10:43:18.307Z,29.30
2019-04-10T10:45:49.177Z,31.57
2019-04-10T10:48:19.856Z,35.33
2019-04-10T10:50:49.990Z,32.05
2019-04-10T10:53:19.948Z,33.65
2019-04-10T10:55:49.807Z,30.12
2019-04-10T10:58:21.760Z,29.60
2019-04-10T11:00:53.698Z,29.95
2019-04-10T11:03:24.528Z,32.13
2019-04-10T11:05:55.713Z,32.08
2019-04-10T11:08:25.549Z,31.62
2019-04-10T11:10:57.199Z,30.62
2019-04-10T11:13:26.909Z,28.25
2019-04-10T11:15:57.111Z,29.70
2019-04-10T11:18:26.980Z,32.03
2019-04-10T11:21:02.919Z,31.02
2019-04-10T11:23:28.538Z,36.25
2019-04-10T11:25:59.539Z,35.35
2019-04-10T11:31:01.822Z,26.87
2019-04-10T11:33:32.953Z,26.93
2019-04-10T11:36:03.784Z,28.83
2019-04-10T11:38:33.791Z,31.27
2019-04-10T11:41:06.360Z,29.00
2019-04-10T11:43:37.718Z,27.22
2019-04-10T11:46:10.302Z,27.40
2019-04-10T11:48:44.644Z,24.05
2019-04-10T11:51:13.450Z,28.15
2019-04-10T11:53:47.214Z,25.55
2019-04-10T11:56:17.533Z,29.90
2019-04-10T11:58:53.728Z,27.95
2019-04-10T12:01:21.220Z,26.27
2019-04-10T12:03:53.939Z,16.27
2019-04-10T12:06:24.695Z,18.27
2019-04-10T12:09:13.300Z,12.63
2019-04-10T12:11:24.995Z,19.62
2019-04-10T12:13:54.956Z,18.80
2019-04-10T12:16:25.181Z,18.90
2019-04-10T12:18:55.951Z,20.97
2019-04-10T12:21:27.409Z,23.70
2019-04-10T12:23:57.380Z,25.40
2019-04-10T12:26:27.631Z,23.42
2019-04-10T12:28:58.206Z,25.52
2019-04-10T12:31:28.189Z,33.73
2019-04-10T12:33:59.927Z,30.02
2019-04-10T12:36:30.990Z,29.50
2019-04-10T12:39:00.973Z,27.98
2019-04-10T12:41:33.204Z,21.85
2019-04-10T12:44:03.422Z,24.47
2019-04-10T12:46:33.345Z,26.75
2019-04-10T12:49:03.836Z,33.00
2019-04-10T12:51:38.168Z,37.17
2019-04-10T12:56:37.993Z,31.37
2019-04-10T12:59:08.922Z,27.00
2019-04-10T13:01:38.882Z,28.47
2019-04-10T13:04:08.919Z,32.58
2019-04-10T13:06:39.929Z,33.23
2019-04-10T13:09:13.024Z,29.30
2019-04-10T13:11:45.385Z,31.75
2019-04-10T13:14:17.287Z,30.70
2019-04-10T13:16:47.904Z,32.03
2019-04-10T13:19:18.791Z,30.60
2019-04-10T13:21:51.714Z,31.37
2019-04-10T13:24:23.791Z,26.00
2019-04-10T13:26:55.052Z,22.77
2019-04-10T13:29:24.960Z,22.50
2019-04-10T13:31:55.782Z,22.22
2019-04-10T13:34:26.907Z,24.15
2019-04-10T13:36:56.841Z,23.35
2019-04-10T13:39:27.733Z,22.27
2019-04-10T13:41:58.797Z,19.92
2019-04-10T13:44:28.852Z,19.92
2019-04-10T13:46:59.760Z,21.10
2019-04-10T13:49:30.295Z,22.75
2019-04-10T13:52:01.460Z,21.48
2019-04-10T13:54:32.646Z,22.30
2019-04-10T13:57:03.472Z,21.68
2019-04-10T13:59:33.481Z,21.90
2019-04-10T14:02:04.778Z,24.95
2019-04-10T14:04:35.612Z,23.75
2019-04-10T14:07:07.382Z,29.98
2019-04-10T14:09:43.997Z,22.65
2019-04-10T14:12:10.035Z,24.65
2019-04-10T14:14:40.469Z,26.85
2019-04-10T14:17:11.080Z,22.45
2019-04-10T14:19:41.519Z,24.92
2019-04-10T14:22:11.475Z,25.72
2019-04-10T14:24:45.226Z,23.02
2019-04-10T14:27:18.343Z,25.88
2019-04-10T14:29:49.051Z,15.40
2019-04-10T14:32:21.622Z,11.50
2019-04-10T14:34:52.430Z,8.40
2019-04-10T14:37:23.243Z,6.87
2019-04-10T14:39:53.191Z,7.58
2019-04-10T14:42:23.164Z,6.33
2019-04-10T14:44:53.145Z,5.95
2019-04-10T14:47:23.881Z,8.10
2019-04-10T14:49:54.890Z,5.95
2019-04-10T14:52:27.326Z,8.48
2019-04-10T14:54:57.238Z,8.30
2019-04-10T14:57:27.266Z,7.33
2019-04-10T14:59:57.941Z,7.15
2019-04-10T15:02:27.800Z,18.27
2019-04-10T15:04:57.704Z,9.98
2019-04-10T15:07:27.598Z,12.00
2019-04-10T15:09:57.530Z,6.97
2019-04-10T15:12:28.087Z,13.28
2019-04-10T15:14:59.583Z,7.80
2019-04-10T15:17:30.811Z,10.25
2019-04-10T15:20:00.989Z,10.68
2019-04-10T15:22:31.783Z,9.83
2019-04-10T15:25:01.774Z,9.15
2019-04-10T15:27:35.447Z,9.38
2019-04-10T15:30:08.341Z,6.00
2019-04-10T15:32:38.705Z,9.55
2019-04-10T15:35:10.429Z,6.80
2019-04-10T15:37:41.584Z,6.75
2019-04-10T15:40:19.999Z,7.03
2019-04-10T15:42:46.044Z,6.67
2019-04-10T15:45:16.431Z,7.50
2019-04-10T15:47:52.677Z,6.15
2019-04-10T15:50:18.099Z,5.08
2019-04-10T15:52:49.351Z,6.05
2019-04-10T15:55:19.513Z,8.33
2019-04-10T15:57:53.820Z,4.90
2019-04-10T16:00:21.234Z,4.92
2019-04-10T16:02:51.294Z,5.53
2019-04-10T16:05:21.636Z,6.62
2019-04-10T16:07:51.741Z,5.62
2019-04-10T16:10:29.089Z,8.15
2019-04-10T16:13:14.531Z,6.03
2019-04-10T16:15:44.987Z,7.28
2019-04-10T16:18:19.324Z,6.60
2019-04-10T16:20:50.873Z,8.93
2019-04-10T16:23:22.325Z,7.83
2019-04-10T16:25:54.491Z,7.78
2019-04-10T16:28:25.372Z,8.40
2019-04-10T16:30:55.248Z,8.10
2019-04-10T16:33:25.437Z,8.75
2019-04-10T16:35:55.397Z,8.58
2019-04-10T16:38:25.435Z,10.55
2019-04-10T16:40:56.963Z,9.95
2019-04-10T16:43:26.929Z,8.18
2019-04-10T16:45:57.277Z,7.35
2019-04-10T16:48:28.798Z,7.72
2019-04-10T16:50:59.697Z,7.33
2019-04-10T16:53:29.943Z,13.40
2019-04-10T16:56:01.030Z,7.42
2019-04-10T16:58:32.022Z,7.92
2019-04-10T17:01:02.305Z,8.78
2019-04-10T17:03:33.773Z,8.20
2019-04-10T17:06:04.009Z,8.03
2019-04-10T17:08:34.282Z,8.58
2019-04-10T17:11:07.784Z,7.37
2019-04-10T17:13:38.494Z,5.70
2019-04-10T17:16:09.276Z,9.15
2019-04-10T17:18:39.316Z,6.58
2019-04-10T17:21:11.096Z,5.85
2019-04-10T17:23:41.198Z,4.65
2019-04-10T17:26:11.382Z,6.78
2019-04-10T17:28:41.269Z,6.65
2019-04-10T17:31:11.535Z,9.95
2019-04-10T17:33:41.903Z,5.60
2019-04-10T17:36:12.025Z,5.22
2019-04-10T17:38:42.798Z,5.12
2019-04-10T17:41:12.778Z,5.75
2019-04-10T17:43:43.469Z,8.80
2019-04-10T17:46:13.450Z,4.50
2019-04-10T17:48:44.156Z,5.25
2019-04-10T17:51:14.700Z,4.33
2019-04-10T17:53:45.393Z,6.60
2019-04-10T17:56:18.088Z,6.03
2019-04-10T17:58:47.986Z,5.97
2019-04-10T18:01:19.433Z,5.35
2019-04-10T18:03:54.777Z,6.25
2019-04-10T18:06:21.440Z,6.50
2019-04-10T18:08:51.495Z,5.75
2019-04-10T18:11:22.501Z,7.85
2019-04-10T18:13:53.066Z,5.47
2019-04-10T18:16:22.934Z,4.78
2019-04-10T18:18:53.864Z,5.95
2019-04-10T18:21:24.579Z,5.53
2019-04-10T18:23:55.780Z,6.08
2019-04-10T18:26:25.767Z,7.37
2019-04-10T18:28:56.130Z,7.35
2019-04-10T18:31:27.785Z,7.42
2019-04-10T18:33:58.587Z,5.90
2019-04-10T18:36:29.772Z,8.13
2019-04-10T18:38:59.839Z,6.65
2019-04-10T18:41:30.026Z,6.70
2019-04-10T18:44:00.537Z,6.40
2019-04-10T18:46:31.476Z,5.78
2019-04-10T18:49:01.289Z,10.72
2019-04-10T18:51:32.028Z,6.83
2019-04-10T18:54:02.006Z,6.67
2019-04-10T18:56:31.965Z,7.35
2019-04-10T18:59:06.100Z,6.00
2019-04-10T19:01:53.611Z,7.30
2019-04-10T19:04:32.819Z,9.73
2019-04-10T19:07:02.812Z,8.30
2019-04-10T19:09:34.447Z,7.87
2019-04-10T19:12:04.513Z,7.87
2019-04-10T19:14:36.613Z,8.90
2019-04-10T19:17:06.746Z,7.87
2019-04-10T19:19:40.401Z,10.03
2019-04-10T19:22:09.879Z,11.33
2019-04-10T19:24:39.939Z,9.25
2019-04-10T19:27:11.815Z,8.70
2019-04-10T19:29:42.427Z,10.68
2019-04-10T19:32:14.146Z,12.70
2019-04-10T19:34:43.954Z,10.63
2019-04-10T19:37:14.516Z,13.53
2019-04-10T19:39:44.675Z,10.30
2019-04-10T19:42:15.613Z,12.13
2019-04-10T19:44:45.669Z,12.58
2019-04-10T19:47:17.935Z,12.93
2019-04-10T19:49:48.929Z,15.35
2019-04-10T19:52:18.767Z,13.98
2019-04-10T19:54:49.304Z,18.48
2019-04-10T19:57:19.353Z,13.83
2019-04-10T19:59:50.223Z,13.48
2019-04-10T20:02:20.404Z,13.25
2019-04-10T20:04:52.699Z,13.22
2019-04-10T20:07:22.844Z,17.15
2019-04-10T20:09:52.879Z,20.85
2019-04-10T20:12:22.749Z,18.70
2019-04-10T20:14:53.363Z,21.48
2019-04-10T20:17:24.041Z,17.62
2019-04-10T20:19:56.473Z,12.88
2019-04-10T20:22:27.813Z,14.18
2019-04-10T20:24:57.262Z,13.78
2019-04-10T20:27:27.803Z,16.37
2019-04-10T20:29:57.681Z,14.43
2019-04-10T20:32:28.073Z,15.90
2019-04-10T20:34:58.098Z,18.48
2019-04-10T20:37:29.051Z,16.62
2019-04-10T20:39:59.015Z,15.35
2019-04-10T20:42:29.920Z,20.37
2019-04-10T20:45:00.827Z,15.58
2019-04-10T20:47:30.998Z,13.85
2019-04-10T20:50:01.877Z,14.53
2019-04-10T20:52:32.977Z,10.63
2019-04-10T20:55:03.593Z,11.88
2019-04-10T20:57:33.587Z,11.53
2019-04-10T21:00:05.628Z,10.63
2019-04-10T21:02:36.223Z,12.35
2019-04-10T21:05:09.812Z,11.68
2019-04-10T21:07:39.562Z,10.63
2019-04-10T21:10:09.637Z,12.47
2019-04-10T21:12:39.879Z,14.85
2019-04-10T21:15:11.121Z,12.00
2019-04-10T21:17:42.499Z,13.50
2019-04-10T21:20:15.918Z,13.28
2019-04-10T21:22:45.807Z,11.80
2019-04-10T21:25:15.625Z,13.03
2019-04-10T21:27:48.781Z,12.58
2019-04-10T21:30:22.086Z,13.48
2019-04-10T21:32:56.544Z,12.10
2019-04-10T21:35:27.848Z,13.28
2019-04-10T21:37:59.305Z,13.40
2019-04-10T21:40:29.123Z,12.00
2019-04-10T21:42:59.019Z,13.35
2019-04-10T21:45:30.619Z,12.33
2019-04-10T21:48:10.517Z,14.87
2019-04-10T21:50:41.990Z,14.93
2019-04-10T21:53:12.235Z,13.58
2019-04-10T21:55:42.156Z,16.80
2019-04-10T21:58:17.895Z,15.95
2019-04-10T22:01:01.631Z,14.25
2019-04-10T22:03:33.782Z,16.15
2019-04-10T22:06:19.859Z,16.95
2019-04-10T22:09:10.578Z,15.58
2019-04-10T22:11:43.376Z,16.93
2019-04-10T22:14:21.493Z,16.77
2019-04-10T22:16:52.549Z,15.53
2019-04-10T22:19:26.933Z,15.72
2019-04-10T22:21:57.799Z,16.23
2019-04-10T22:24:27.941Z,19.05
2019-04-10T22:26:58.611Z,17.87
2019-04-10T22:29:28.572Z,16.57
2019-04-10T22:31:58.476Z,17.17
2019-04-10T22:34:34.241Z,16.85
2019-04-10T22:37:04.278Z,15.30
2019-04-10T22:39:34.344Z,14.83
2019-04-10T22:42:05.299Z,15.55
2019-04-10T22:44:41.953Z,14.50
2019-04-10T22:47:07.131Z,15.10
2019-04-10T22:49:37.126Z,15.40
2019-04-10T22:52:10.943Z,15.60
2019-04-10T22:54:40.779Z,16.15
2019-04-10T22:57:10.672Z,16.55
2019-04-10T22:59:40.569Z,16.17
2019-04-10T23:02:12.047Z,14.68
2019-04-10T23:04:42.820Z,17.10
2019-04-10T23:07:13.521Z,14.63
2019-04-10T23:09:44.415Z,14.83
2019-04-10T23:12:16.213Z,14.55
2019-04-10T23:14:47.027Z,15.88
2019-04-10T23:17:16.982Z,17.12
2019-04-10T23:19:46.885Z,18.55
2019-04-10T23:22:16.870Z,17.45
2019-04-10T23:24:47.662Z,17.15
2019-04-10T23:27:17.748Z,18.20
2019-04-10T23:29:48.598Z,18.82
2019-04-10T23:32:19.427Z,21.45
2019-04-10T23:34:50.517Z,20.48
2019-04-10T23:37:20.606Z,21.60
2019-04-10T23:39:50.567Z,21.00
2019-04-10T23:42:21.335Z,25.50
2019-04-10T23:44:51.383Z,22.98
2019-04-10T23:47:22.168Z,23.32
2019-04-10T23:49:52.181Z,24.77
2019-04-10T23:52:22.000Z,23.40
2019-04-10T23:54:51.904Z,27.58
2019-04-10T23:57:21.730Z,21.77
2019-04-10T23:59:51.553Z,24.65
